sensor_id;sensor_type;location;lat;lon;timestamp;P1;durP1;ratioP1;P2;durP2;ratioP2
58260;SDS011;44058;52.898;6.502;2022-12-17T00:01:59;73.97;;;28.73;;
58260;SDS011;44058;52.898;6.502;2022-12-17T00:04:44;68.20;;;26.77;;
58260;SDS011;44058;52.898;6.502;2022-12-17T00:07:29;83.90;;;27.63;;
58260;SDS011;44058;52.898;6.502;2022-12-17T00:10:14;68.20;;;27.43;;
58260;SDS011;44058;52.898;6.502;2022-12-17T00:12:59;81.43;;;30.53;;
58260;SDS011;44058;52.898;6.502;2022-12-17T00:15:49;77.17;;;28.50;;
58260;SDS011;44058;52.898;6.502;2022-12-17T00:18:34;70.83;;;28.30;;
58260;SDS011;44058;52.898;6.502;2022-12-17T00:21:19;64.53;;;28.03;;
58260;SDS011;44058;52.898;6.502;2022-12-17T00:24:18;65.97;;;28.50;;
58260;SDS011;44058;52.898;6.502;2022-12-17T00:27:03;73.47;;;28.03;;
58260;SDS011;44058;52.898;6.502;2022-12-17T00:29:48;73.77;;;27.97;;
58260;SDS011;44058;52.898;6.502;2022-12-17T00:32:32;79.47;;;29.90;;
58260;SDS011;44058;52.898;6.502;2022-12-17T00:35:17;82.53;;;28.97;;
58260;SDS011;44058;52.898;6.502;2022-12-17T00:38:02;74.13;;;29.30;;
58260;SDS011;44058;52.898;6.502;2022-12-17T00:40:51;71.83;;;28.20;;
58260;SDS011;44058;52.898;6.502;2022-12-17T00:43:40;62.40;;;26.67;;
58260;SDS011;44058;52.898;6.502;2022-12-17T00:46:25;68.63;;;26.93;;
58260;SDS011;44058;52.898;6.502;2022-12-17T00:49:13;55.47;;;25.37;;
58260;SDS011;44058;52.898;6.502;2022-12-17T00:51:57;68.67;;;28.33;;
58260;SDS011;44058;52.898;6.502;2022-12-17T00:54:42;57.90;;;25.83;;
58260;SDS011;44058;52.898;6.502;2022-12-17T00:57:27;60.50;;;26.40;;
58260;SDS011;44058;52.898;6.502;2022-12-17T01:00:12;58.47;;;26.70;;
58260;SDS011;44058;52.898;6.502;2022-12-17T01:03:04;57.10;;;24.37;;
58260;SDS011;44058;52.898;6.502;2022-12-17T01:05:50;60.20;;;24.73;;
58260;SDS011;44058;52.898;6.502;2022-12-17T01:08:35;55.40;;;25.63;;
58260;SDS011;44058;52.898;6.502;2022-12-17T01:11:20;55.97;;;24.37;;
58260;SDS011;44058;52.898;6.502;2022-12-17T01:14:04;50.30;;;24.43;;
58260;SDS011;44058;52.898;6.502;2022-12-17T01:16:49;54.03;;;25.23;;
58260;SDS011;44058;52.898;6.502;2022-12-17T01:19:34;57.97;;;24.90;;
58260;SDS011;44058;52.898;6.502;2022-12-17T01:22:20;50.23;;;24.57;;
58260;SDS011;44058;52.898;6.502;2022-12-17T01:25:04;53.77;;;25.77;;
58260;SDS011;44058;52.898;6.502;2022-12-17T01:27:49;48.90;;;24.30;;
58260;SDS011;44058;52.898;6.502;2022-12-17T01:30:35;46.50;;;23.40;;
58260;SDS011;44058;52.898;6.502;2022-12-17T01:33:20;42.93;;;23.43;;
58260;SDS011;44058;52.898;6.502;2022-12-17T01:36:05;53.80;;;23.97;;
58260;SDS011;44058;52.898;6.502;2022-12-17T01:38:49;52.27;;;25.30;;
58260;SDS011;44058;52.898;6.502;2022-12-17T01:41:35;49.47;;;22.97;;
58260;SDS011;44058;52.898;6.502;2022-12-17T01:47:26;45.03;;;23.97;;
58260;SDS011;44058;52.898;6.502;2022-12-17T01:50:12;44.63;;;23.07;;
58260;SDS011;44058;52.898;6.502;2022-12-17T01:52:58;47.83;;;24.20;;
58260;SDS011;44058;52.898;6.502;2022-12-17T01:55:44;49.07;;;23.37;;
58260;SDS011;44058;52.898;6.502;2022-12-17T01:58:29;50.53;;;24.37;;
58260;SDS011;44058;52.898;6.502;2022-12-17T02:01:14;53.27;;;23.63;;
58260;SDS011;44058;52.898;6.502;2022-12-17T02:04:00;50.00;;;24.07;;
58260;SDS011;44058;52.898;6.502;2022-12-17T02:06:49;48.07;;;24.30;;
58260;SDS011;44058;52.898;6.502;2022-12-17T02:09:41;42.63;;;23.07;;
58260;SDS011;44058;52.898;6.502;2022-12-17T02:12:32;43.00;;;23.13;;
58260;SDS011;44058;52.898;6.502;2022-12-17T02:15:31;45.35;;;23.65;;
58260;SDS011;44058;52.898;6.502;2022-12-17T02:18:20;53.70;;;23.98;;
58260;SDS011;44058;52.898;6.502;2022-12-17T02:21:06;46.03;;;24.33;;
58260;SDS011;44058;52.898;6.502;2022-12-17T02:26:52;51.63;;;24.47;;
58260;SDS011;44058;52.898;6.502;2022-12-17T02:29:39;49.73;;;24.23;;
58260;SDS011;44058;52.898;6.502;2022-12-17T02:32:26;58.20;;;26.40;;
58260;SDS011;44058;52.898;6.502;2022-12-17T02:35:14;48.93;;;24.03;;
58260;SDS011;44058;52.898;6.502;2022-12-17T02:37:59;50.57;;;23.83;;
58260;SDS011;44058;52.898;6.502;2022-12-17T02:40:44;43.33;;;23.77;;
58260;SDS011;44058;52.898;6.502;2022-12-17T02:43:30;50.33;;;24.90;;
58260;SDS011;44058;52.898;6.502;2022-12-17T02:46:17;48.67;;;24.20;;
58260;SDS011;44058;52.898;6.502;2022-12-17T02:49:03;49.30;;;24.10;;
58260;SDS011;44058;52.898;6.502;2022-12-17T02:51:48;52.73;;;24.47;;
58260;SDS011;44058;52.898;6.502;2022-12-17T02:54:33;51.67;;;24.83;;
58260;SDS011;44058;52.898;6.502;2022-12-17T02:57:19;50.57;;;23.40;;
58260;SDS011;44058;52.898;6.502;2022-12-17T03:00:04;50.83;;;24.87;;
58260;SDS011;44058;52.898;6.502;2022-12-17T03:03:04;42.73;;;22.67;;
58260;SDS011;44058;52.898;6.502;2022-12-17T03:05:50;44.50;;;23.67;;
58260;SDS011;44058;52.898;6.502;2022-12-17T03:08:42;51.27;;;24.57;;
58260;SDS011;44058;52.898;6.502;2022-12-17T03:11:34;49.70;;;24.73;;
58260;SDS011;44058;52.898;6.502;2022-12-17T03:14:21;50.17;;;24.40;;
58260;SDS011;44058;52.898;6.502;2022-12-17T03:17:06;48.73;;;24.87;;
58260;SDS011;44058;52.898;6.502;2022-12-17T03:19:51;47.70;;;23.80;;
58260;SDS011;44058;52.898;6.502;2022-12-17T03:22:36;49.77;;;24.60;;
58260;SDS011;44058;52.898;6.502;2022-12-17T03:25:21;57.43;;;27.27;;
58260;SDS011;44058;52.898;6.502;2022-12-17T03:28:08;50.23;;;25.13;;
58260;SDS011;44058;52.898;6.502;2022-12-17T03:30:56;52.00;;;25.03;;
58260;SDS011;44058;52.898;6.502;2022-12-17T03:33:41;53.20;;;25.03;;
58260;SDS011;44058;52.898;6.502;2022-12-17T03:36:26;54.33;;;26.00;;
58260;SDS011;44058;52.898;6.502;2022-12-17T03:39:11;53.60;;;25.40;;
58260;SDS011;44058;52.898;6.502;2022-12-17T03:42:01;51.33;;;25.37;;
58260;SDS011;44058;52.898;6.502;2022-12-17T03:44:46;49.33;;;24.80;;
58260;SDS011;44058;52.898;6.502;2022-12-17T03:47:31;53.73;;;25.43;;
58260;SDS011;44058;52.898;6.502;2022-12-17T03:50:16;53.43;;;26.47;;
58260;SDS011;44058;52.898;6.502;2022-12-17T03:53:02;56.17;;;26.53;;
58260;SDS011;44058;52.898;6.502;2022-12-17T03:55:47;53.70;;;24.93;;
58260;SDS011;44058;52.898;6.502;2022-12-17T03:58:40;57.93;;;26.43;;
58260;SDS011;44058;52.898;6.502;2022-12-17T04:01:25;54.30;;;25.90;;
58260;SDS011;44058;52.898;6.502;2022-12-17T04:04:10;57.47;;;25.60;;
58260;SDS011;44058;52.898;6.502;2022-12-17T04:06:56;56.73;;;25.40;;
58260;SDS011;44058;52.898;6.502;2022-12-17T04:09:41;53.47;;;25.10;;
58260;SDS011;44058;52.898;6.502;2022-12-17T04:12:25;56.93;;;26.87;;
58260;SDS011;44058;52.898;6.502;2022-12-17T04:15:11;55.17;;;26.07;;
58260;SDS011;44058;52.898;6.502;2022-12-17T04:17:56;55.67;;;26.03;;
58260;SDS011;44058;52.898;6.502;2022-12-17T04:20:40;53.93;;;25.70;;
58260;SDS011;44058;52.898;6.502;2022-12-17T04:23:25;53.83;;;26.17;;
58260;SDS011;44058;52.898;6.502;2022-12-17T04:26:30;53.63;;;25.87;;
58260;SDS011;44058;52.898;6.502;2022-12-17T04:29:15;55.87;;;27.07;;
58260;SDS011;44058;52.898;6.502;2022-12-17T04:32:00;52.40;;;26.30;;
58260;SDS011;44058;52.898;6.502;2022-12-17T04:34:44;63.87;;;27.27;;
58260;SDS011;44058;52.898;6.502;2022-12-17T04:37:29;56.43;;;26.40;;
58260;SDS011;44058;52.898;6.502;2022-12-17T04:40:14;48.37;;;25.37;;
58260;SDS011;44058;52.898;6.502;2022-12-17T04:43:05;57.67;;;27.23;;
58260;SDS011;44058;52.898;6.502;2022-12-17T04:45:50;53.37;;;26.53;;
58260;SDS011;44058;52.898;6.502;2022-12-17T04:48:35;51.03;;;24.47;;
58260;SDS011;44058;52.898;6.502;2022-12-17T04:51:20;56.20;;;26.00;;
58260;SDS011;44058;52.898;6.502;2022-12-17T04:54:05;53.07;;;25.00;;
58260;SDS011;44058;52.898;6.502;2022-12-17T04:56:50;48.00;;;25.33;;
58260;SDS011;44058;52.898;6.502;2022-12-17T04:59:35;47.67;;;24.50;;
58260;SDS011;44058;52.898;6.502;2022-12-17T05:02:20;53.73;;;26.03;;
58260;SDS011;44058;52.898;6.502;2022-12-17T05:05:05;52.33;;;25.33;;
58260;SDS011;44058;52.898;6.502;2022-12-17T05:07:52;50.30;;;25.87;;
58260;SDS011;44058;52.898;6.502;2022-12-17T05:10:37;47.93;;;25.50;;
58260;SDS011;44058;52.898;6.502;2022-12-17T05:13:22;52.53;;;25.33;;
58260;SDS011;44058;52.898;6.502;2022-12-17T05:16:07;47.67;;;24.97;;
58260;SDS011;44058;52.898;6.502;2022-12-17T05:18:53;44.47;;;24.57;;
58260;SDS011;44058;52.898;6.502;2022-12-17T05:21:38;52.27;;;25.93;;
58260;SDS011;44058;52.898;6.502;2022-12-17T05:24:25;49.77;;;23.97;;
58260;SDS011;44058;52.898;6.502;2022-12-17T05:27:10;50.23;;;24.43;;
58260;SDS011;44058;52.898;6.502;2022-12-17T05:29:54;50.13;;;25.50;;
58260;SDS011;44058;52.898;6.502;2022-12-17T05:33:00;51.17;;;25.60;;
58260;SDS011;44058;52.898;6.502;2022-12-17T05:36:06;47.43;;;24.93;;
58260;SDS011;44058;52.898;6.502;2022-12-17T05:39:10;50.57;;;25.40;;
58260;SDS011;44058;52.898;6.502;2022-12-17T05:42:15;50.53;;;26.10;;
58260;SDS011;44058;52.898;6.502;2022-12-17T05:45:00;50.93;;;26.33;;
58260;SDS011;44058;52.898;6.502;2022-12-17T05:47:45;52.43;;;25.23;;
58260;SDS011;44058;52.898;6.502;2022-12-17T05:50:34;58.92;;;26.08;;
58260;SDS011;44058;52.898;6.502;2022-12-17T05:53:19;54.10;;;25.90;;
58260;SDS011;44058;52.898;6.502;2022-12-17T05:56:04;49.97;;;24.50;;
58260;SDS011;44058;52.898;6.502;2022-12-17T05:58:49;52.50;;;25.73;;
58260;SDS011;44058;52.898;6.502;2022-12-17T06:01:34;57.57;;;27.40;;
58260;SDS011;44058;52.898;6.502;2022-12-17T06:04:19;55.83;;;26.37;;
58260;SDS011;44058;52.898;6.502;2022-12-17T06:07:04;54.50;;;27.23;;
58260;SDS011;44058;52.898;6.502;2022-12-17T06:09:49;57.47;;;27.27;;
58260;SDS011;44058;52.898;6.502;2022-12-17T06:12:35;54.00;;;26.13;;
58260;SDS011;44058;52.898;6.502;2022-12-17T06:15:20;54.07;;;26.43;;
58260;SDS011;44058;52.898;6.502;2022-12-17T06:18:05;57.37;;;27.70;;
58260;SDS011;44058;52.898;6.502;2022-12-17T06:20:50;58.33;;;27.10;;
58260;SDS011;44058;52.898;6.502;2022-12-17T06:23:35;58.20;;;26.70;;
58260;SDS011;44058;52.898;6.502;2022-12-17T06:26:20;52.40;;;26.10;;
58260;SDS011;44058;52.898;6.502;2022-12-17T06:29:05;57.53;;;27.20;;
58260;SDS011;44058;52.898;6.502;2022-12-17T06:31:50;56.53;;;27.07;;
58260;SDS011;44058;52.898;6.502;2022-12-17T06:34:35;58.23;;;28.40;;
58260;SDS011;44058;52.898;6.502;2022-12-17T06:37:20;52.27;;;27.50;;
58260;SDS011;44058;52.898;6.502;2022-12-17T06:40:06;59.20;;;27.33;;
58260;SDS011;44058;52.898;6.502;2022-12-17T06:42:59;63.53;;;28.20;;
58260;SDS011;44058;52.898;6.502;2022-12-17T06:45:44;52.40;;;26.40;;
58260;SDS011;44058;52.898;6.502;2022-12-17T06:48:29;57.07;;;27.60;;
58260;SDS011;44058;52.898;6.502;2022-12-17T06:51:14;61.43;;;27.20;;
58260;SDS011;44058;52.898;6.502;2022-12-17T06:53:59;58.77;;;27.00;;
58260;SDS011;44058;52.898;6.502;2022-12-17T06:56:44;62.80;;;27.53;;
58260;SDS011;44058;52.898;6.502;2022-12-17T06:59:29;52.53;;;24.63;;
58260;SDS011;44058;52.898;6.502;2022-12-17T07:02:14;61.87;;;27.17;;
58260;SDS011;44058;52.898;6.502;2022-12-17T07:04:59;59.67;;;28.27;;
58260;SDS011;44058;52.898;6.502;2022-12-17T07:07:44;52.70;;;26.83;;
58260;SDS011;44058;52.898;6.502;2022-12-17T07:10:30;62.23;;;28.50;;
58260;SDS011;44058;52.898;6.502;2022-12-17T07:13:15;58.77;;;27.03;;
58260;SDS011;44058;52.898;6.502;2022-12-17T07:16:00;61.43;;;27.73;;
58260;SDS011;44058;52.898;6.502;2022-12-17T07:18:45;61.83;;;25.23;;
58260;SDS011;44058;52.898;6.502;2022-12-17T07:21:29;56.03;;;26.60;;
58260;SDS011;44058;52.898;6.502;2022-12-17T07:24:15;64.67;;;27.03;;
58260;SDS011;44058;52.898;6.502;2022-12-17T07:27:00;63.63;;;27.83;;
58260;SDS011;44058;52.898;6.502;2022-12-17T07:29:46;61.33;;;26.73;;
58260;SDS011;44058;52.898;6.502;2022-12-17T07:32:31;60.03;;;25.83;;
58260;SDS011;44058;52.898;6.502;2022-12-17T07:35:16;63.07;;;27.47;;
58260;SDS011;44058;52.898;6.502;2022-12-17T07:38:02;61.93;;;27.40;;
58260;SDS011;44058;52.898;6.502;2022-12-17T07:40:46;61.93;;;27.20;;
58260;SDS011;44058;52.898;6.502;2022-12-17T07:43:31;60.40;;;26.77;;
58260;SDS011;44058;52.898;6.502;2022-12-17T07:46:24;62.90;;;25.90;;
58260;SDS011;44058;52.898;6.502;2022-12-17T07:49:09;61.57;;;27.07;;
58260;SDS011;44058;52.898;6.502;2022-12-17T07:51:54;60.83;;;26.73;;
58260;SDS011;44058;52.898;6.502;2022-12-17T07:54:52;61.88;;;25.73;;
58260;SDS011;44058;52.898;6.502;2022-12-17T07:57:37;60.30;;;24.30;;
58260;SDS011;44058;52.898;6.502;2022-12-17T08:00:22;57.07;;;25.70;;
58260;SDS011;44058;52.898;6.502;2022-12-17T08:03:06;60.83;;;25.83;;
58260;SDS011;44058;52.898;6.502;2022-12-17T08:05:52;66.00;;;27.03;;
58260;SDS011;44058;52.898;6.502;2022-12-17T08:08:36;64.80;;;26.80;;
58260;SDS011;44058;52.898;6.502;2022-12-17T08:11:22;60.73;;;25.10;;
58260;SDS011;44058;52.898;6.502;2022-12-17T08:14:07;64.60;;;25.57;;
58260;SDS011;44058;52.898;6.502;2022-12-17T08:17:02;60.50;;;26.07;;
58260;SDS011;44058;52.898;6.502;2022-12-17T08:19:47;58.77;;;24.67;;
58260;SDS011;44058;52.898;6.502;2022-12-17T08:22:32;58.57;;;25.70;;
58260;SDS011;44058;52.898;6.502;2022-12-17T08:25:17;63.70;;;26.87;;
58260;SDS011;44058;52.898;6.502;2022-12-17T08:28:02;64.03;;;27.40;;
58260;SDS011;44058;52.898;6.502;2022-12-17T08:30:47;62.23;;;26.70;;
58260;SDS011;44058;52.898;6.502;2022-12-17T08:33:32;58.67;;;25.17;;
58260;SDS011;44058;52.898;6.502;2022-12-17T08:36:17;60.23;;;25.40;;
58260;SDS011;44058;52.898;6.502;2022-12-17T08:39:02;64.40;;;27.60;;
58260;SDS011;44058;52.898;6.502;2022-12-17T08:41:47;55.33;;;24.97;;
58260;SDS011;44058;52.898;6.502;2022-12-17T08:44:32;60.90;;;25.47;;
58260;SDS011;44058;52.898;6.502;2022-12-17T08:47:17;62.93;;;26.20;;
58260;SDS011;44058;52.898;6.502;2022-12-17T08:50:02;61.03;;;27.17;;
58260;SDS011;44058;52.898;6.502;2022-12-17T08:52:47;58.53;;;25.97;;
58260;SDS011;44058;52.898;6.502;2022-12-17T08:55:32;62.97;;;25.37;;
58260;SDS011;44058;52.898;6.502;2022-12-17T08:58:17;59.27;;;25.03;;
58260;SDS011;44058;52.898;6.502;2022-12-17T09:01:02;58.00;;;25.13;;
58260;SDS011;44058;52.898;6.502;2022-12-17T09:03:47;59.67;;;25.33;;
58260;SDS011;44058;52.898;6.502;2022-12-17T09:06:32;61.10;;;24.07;;
58260;SDS011;44058;52.898;6.502;2022-12-17T09:09:17;70.13;;;26.93;;
58260;SDS011;44058;52.898;6.502;2022-12-17T09:12:03;62.80;;;26.10;;
58260;SDS011;44058;52.898;6.502;2022-12-17T09:14:48;61.70;;;25.37;;
58260;SDS011;44058;52.898;6.502;2022-12-17T09:17:33;59.40;;;24.47;;
58260;SDS011;44058;52.898;6.502;2022-12-17T09:20:22;57.90;;;25.17;;
58260;SDS011;44058;52.898;6.502;2022-12-17T09:23:06;61.67;;;26.27;;
58260;SDS011;44058;52.898;6.502;2022-12-17T09:25:55;64.00;;;27.87;;
58260;SDS011;44058;52.898;6.502;2022-12-17T09:28:40;62.35;;;26.15;;
58260;SDS011;44058;52.898;6.502;2022-12-17T09:31:25;57.73;;;25.83;;
58260;SDS011;44058;52.898;6.502;2022-12-17T09:34:10;66.27;;;25.97;;
58260;SDS011;44058;52.898;6.502;2022-12-17T09:36:55;64.07;;;27.73;;
58260;SDS011;44058;52.898;6.502;2022-12-17T09:39:41;65.53;;;27.90;;
58260;SDS011;44058;52.898;6.502;2022-12-17T09:42:30;62.40;;;26.87;;
58260;SDS011;44058;52.898;6.502;2022-12-17T09:50:56;62.27;;;28.73;;
58260;SDS011;44058;52.898;6.502;2022-12-17T09:53:43;64.73;;;27.97;;
58260;SDS011;44058;52.898;6.502;2022-12-17T09:56:37;63.27;;;28.30;;
58260;SDS011;44058;52.898;6.502;2022-12-17T09:59:26;66.77;;;28.20;;
58260;SDS011;44058;52.898;6.502;2022-12-17T10:02:19;60.00;;;26.73;;
58260;SDS011;44058;52.898;6.502;2022-12-17T10:05:07;67.33;;;29.60;;
58260;SDS011;44058;52.898;6.502;2022-12-17T10:07:53;66.73;;;29.87;;
58260;SDS011;44058;52.898;6.502;2022-12-17T10:10:40;64.43;;;28.90;;
58260;SDS011;44058;52.898;6.502;2022-12-17T10:13:27;59.83;;;27.88;;
58260;SDS011;44058;52.898;6.502;2022-12-17T10:16:17;61.17;;;28.57;;
58260;SDS011;44058;52.898;6.502;2022-12-17T10:19:04;63.57;;;29.13;;
58260;SDS011;44058;52.898;6.502;2022-12-17T10:21:49;58.97;;;28.60;;
58260;SDS011;44058;52.898;6.502;2022-12-17T10:24:42;59.30;;;29.90;;
58260;SDS011;44058;52.898;6.502;2022-12-17T10:27:27;64.60;;;31.10;;
58260;SDS011;44058;52.898;6.502;2022-12-17T10:30:15;62.50;;;28.77;;
58260;SDS011;44058;52.898;6.502;2022-12-17T10:33:05;61.73;;;28.67;;
58260;SDS011;44058;52.898;6.502;2022-12-17T10:35:51;62.85;;;29.95;;
58260;SDS011;44058;52.898;6.502;2022-12-17T10:38:36;59.03;;;29.43;;
58260;SDS011;44058;52.898;6.502;2022-12-17T10:41:26;66.73;;;30.67;;
58260;SDS011;44058;52.898;6.502;2022-12-17T10:44:29;63.53;;;29.83;;
58260;SDS011;44058;52.898;6.502;2022-12-17T10:47:16;61.38;;;27.80;;
58260;SDS011;44058;52.898;6.502;2022-12-17T10:50:03;60.53;;;31.43;;
58260;SDS011;44058;52.898;6.502;2022-12-17T10:52:50;60.80;;;28.40;;
58260;SDS011;44058;52.898;6.502;2022-12-17T10:55:35;65.63;;;29.80;;
58260;SDS011;44058;52.898;6.502;2022-12-17T10:58:20;61.37;;;29.33;;
58260;SDS011;44058;52.898;6.502;2022-12-17T11:01:10;65.37;;;29.73;;
58260;SDS011;44058;52.898;6.502;2022-12-17T11:03:55;56.53;;;28.40;;
58260;SDS011;44058;52.898;6.502;2022-12-17T11:06:45;60.23;;;29.63;;
58260;SDS011;44058;52.898;6.502;2022-12-17T11:09:34;54.47;;;28.53;;
58260;SDS011;44058;52.898;6.502;2022-12-17T11:12:21;61.10;;;30.23;;
58260;SDS011;44058;52.898;6.502;2022-12-17T11:15:19;60.85;;;31.35;;
58260;SDS011;44058;52.898;6.502;2022-12-17T11:18:05;59.77;;;29.30;;
58260;SDS011;44058;52.898;6.502;2022-12-17T11:21:06;57.23;;;26.93;;
58260;SDS011;44058;52.898;6.502;2022-12-17T11:23:54;57.60;;;28.97;;
58260;SDS011;44058;52.898;6.502;2022-12-17T11:26:40;60.73;;;30.13;;
58260;SDS011;44058;52.898;6.502;2022-12-17T11:29:27;55.77;;;29.00;;
58260;SDS011;44058;52.898;6.502;2022-12-17T11:32:16;62.03;;;30.43;;
58260;SDS011;44058;52.898;6.502;2022-12-17T11:35:22;55.23;;;29.03;;
58260;SDS011;44058;52.898;6.502;2022-12-17T11:38:28;55.30;;;28.30;;
58260;SDS011;44058;52.898;6.502;2022-12-17T11:41:17;58.67;;;29.03;;
58260;SDS011;44058;52.898;6.502;2022-12-17T11:44:10;58.27;;;31.97;;
58260;SDS011;44058;52.898;6.502;2022-12-17T11:47:13;53.43;;;27.30;;
58260;SDS011;44058;52.898;6.502;2022-12-17T11:55:36;56.00;;;29.03;;
58260;SDS011;44058;52.898;6.502;2022-12-17T11:58:27;59.90;;;29.37;;
58260;SDS011;44058;52.898;6.502;2022-12-17T12:07:16;53.17;;;27.60;;
58260;SDS011;44058;52.898;6.502;2022-12-17T12:10:11;55.03;;;28.67;;
58260;SDS011;44058;52.898;6.502;2022-12-17T12:13:02;59.27;;;30.00;;
58260;SDS011;44058;52.898;6.502;2022-12-17T12:16:05;56.20;;;28.27;;
58260;SDS011;44058;52.898;6.502;2022-12-17T12:18:59;53.37;;;27.83;;
58260;SDS011;44058;52.898;6.502;2022-12-17T12:21:57;60.73;;;29.37;;
58260;SDS011;44058;52.898;6.502;2022-12-17T12:24:59;58.70;;;29.87;;
58260;SDS011;44058;52.898;6.502;2022-12-17T12:34:01;51.17;;;27.67;;
58260;SDS011;44058;52.898;6.502;2022-12-17T12:37:01;52.70;;;27.97;;
58260;SDS011;44058;52.898;6.502;2022-12-17T12:39:54;54.53;;;28.20;;
58260;SDS011;44058;52.898;6.502;2022-12-17T12:42:46;56.17;;;28.77;;
58260;SDS011;44058;52.898;6.502;2022-12-17T12:45:36;58.40;;;29.33;;
58260;SDS011;44058;52.898;6.502;2022-12-17T12:51:15;56.83;;;29.07;;
58260;SDS011;44058;52.898;6.502;2022-12-17T12:54:29;57.80;;;30.60;;
58260;SDS011;44058;52.898;6.502;2022-12-17T13:09:03;57.93;;;29.43;;
58260;SDS011;44058;52.898;6.502;2022-12-17T13:11:34;59.27;;;30.67;;
58260;SDS011;44058;52.898;6.502;2022-12-17T13:14:04;60.63;;;30.83;;
58260;SDS011;44058;52.898;6.502;2022-12-17T13:21:43;57.50;;;28.57;;
58260;SDS011;44058;52.898;6.502;2022-12-17T13:24:22;60.40;;;30.73;;
58260;SDS011;44058;52.898;6.502;2022-12-17T13:26:59;58.87;;;29.00;;
58260;SDS011;44058;52.898;6.502;2022-12-17T13:29:32;56.50;;;28.33;;
58260;SDS011;44058;52.898;6.502;2022-12-17T13:32:22;59.40;;;29.10;;
58260;SDS011;44058;52.898;6.502;2022-12-17T13:34:57;57.13;;;28.92;;
58260;SDS011;44058;52.898;6.502;2022-12-17T13:37:28;60.03;;;29.00;;
58260;SDS011;44058;52.898;6.502;2022-12-17T13:40:12;60.43;;;30.87;;
58260;SDS011;44058;52.898;6.502;2022-12-17T13:42:43;55.00;;;27.90;;
58260;SDS011;44058;52.898;6.502;2022-12-17T13:45:16;56.60;;;29.30;;
58260;SDS011;44058;52.898;6.502;2022-12-17T13:47:43;61.73;;;30.23;;
58260;SDS011;44058;52.898;6.502;2022-12-17T13:50:18;59.70;;;30.17;;
58260;SDS011;44058;52.898;6.502;2022-12-17T13:53:07;60.13;;;28.93;;
58260;SDS011;44058;52.898;6.502;2022-12-17T13:55:34;62.27;;;30.30;;
58260;SDS011;44058;52.898;6.502;2022-12-17T13:58:00;56.87;;;27.33;;
58260;SDS011;44058;52.898;6.502;2022-12-17T14:00:28;55.40;;;27.57;;
58260;SDS011;44058;52.898;6.502;2022-12-17T14:03:20;52.53;;;28.67;;
58260;SDS011;44058;52.898;6.502;2022-12-17T14:05:49;53.83;;;26.17;;
58260;SDS011;44058;52.898;6.502;2022-12-17T14:08:16;58.03;;;27.73;;
58260;SDS011;44058;52.898;6.502;2022-12-17T14:10:45;53.40;;;28.37;;
58260;SDS011;44058;52.898;6.502;2022-12-17T14:13:12;58.42;;;28.15;;
58260;SDS011;44058;52.898;6.502;2022-12-17T14:15:43;56.07;;;28.50;;
58260;SDS011;44058;52.898;6.502;2022-12-17T14:18:13;57.03;;;28.37;;
58260;SDS011;44058;52.898;6.502;2022-12-17T14:20:40;56.43;;;28.30;;
58260;SDS011;44058;52.898;6.502;2022-12-17T14:23:11;58.80;;;29.00;;
58260;SDS011;44058;52.898;6.502;2022-12-17T14:25:41;60.63;;;29.57;;
58260;SDS011;44058;52.898;6.502;2022-12-17T14:28:23;62.45;;;29.30;;
58260;SDS011;44058;52.898;6.502;2022-12-17T14:30:50;58.40;;;28.50;;
58260;SDS011;44058;52.898;6.502;2022-12-17T14:35:55;56.30;;;27.10;;
58260;SDS011;44058;52.898;6.502;2022-12-17T14:38:21;55.73;;;26.67;;
58260;SDS011;44058;52.898;6.502;2022-12-17T14:40:48;65.60;;;28.90;;
58260;SDS011;44058;52.898;6.502;2022-12-17T14:43:15;59.93;;;29.70;;
58260;SDS011;44058;52.898;6.502;2022-12-17T14:45:48;59.30;;;26.13;;
58260;SDS011;44058;52.898;6.502;2022-12-17T14:48:35;50.40;;;25.70;;
58260;SDS011;44058;52.898;6.502;2022-12-17T14:51:27;54.13;;;25.88;;
58260;SDS011;44058;52.898;6.502;2022-12-17T14:56:53;57.10;;;25.33;;
58260;SDS011;44058;52.898;6.502;2022-12-17T14:59:35;57.43;;;26.33;;
58260;SDS011;44058;52.898;6.502;2022-12-17T15:04:43;59.47;;;28.00;;
58260;SDS011;44058;52.898;6.502;2022-12-17T15:07:25;56.87;;;26.30;;
58260;SDS011;44058;52.898;6.502;2022-12-17T15:10:00;57.90;;;26.60;;
58260;SDS011;44058;52.898;6.502;2022-12-17T15:12:41;57.93;;;25.23;;
58260;SDS011;44058;52.898;6.502;2022-12-17T15:15:13;59.93;;;25.27;;
58260;SDS011;44058;52.898;6.502;2022-12-17T15:17:42;62.33;;;26.53;;
58260;SDS011;44058;52.898;6.502;2022-12-17T15:20:14;56.53;;;25.00;;
58260;SDS011;44058;52.898;6.502;2022-12-17T15:22:42;57.23;;;25.53;;
58260;SDS011;44058;52.898;6.502;2022-12-17T15:25:11;60.40;;;28.03;;
58260;SDS011;44058;52.898;6.502;2022-12-17T15:27:37;60.73;;;26.03;;
58260;SDS011;44058;52.898;6.502;2022-12-17T15:30:04;67.43;;;27.53;;
58260;SDS011;44058;52.898;6.502;2022-12-17T15:32:35;64.43;;;26.07;;
58260;SDS011;44058;52.898;6.502;2022-12-17T15:35:01;60.73;;;27.97;;
58260;SDS011;44058;52.898;6.502;2022-12-17T15:37:29;72.60;;;28.57;;
58260;SDS011;44058;52.898;6.502;2022-12-17T15:39:56;64.27;;;27.90;;
58260;SDS011;44058;52.898;6.502;2022-12-17T15:42:22;60.27;;;25.53;;
58260;SDS011;44058;52.898;6.502;2022-12-17T15:45:07;64.30;;;27.33;;
58260;SDS011;44058;52.898;6.502;2022-12-17T15:47:33;71.33;;;27.73;;
58260;SDS011;44058;52.898;6.502;2022-12-17T15:49:59;66.90;;;27.37;;
58260;SDS011;44058;52.898;6.502;2022-12-17T15:52:25;69.80;;;27.63;;
58260;SDS011;44058;52.898;6.502;2022-12-17T15:54:51;64.40;;;27.27;;
58260;SDS011;44058;52.898;6.502;2022-12-17T15:57:17;66.23;;;25.97;;
58260;SDS011;44058;52.898;6.502;2022-12-17T15:59:43;60.40;;;26.57;;
58260;SDS011;44058;52.898;6.502;2022-12-17T16:02:10;63.87;;;26.63;;
58260;SDS011;44058;52.898;6.502;2022-12-17T16:04:36;69.70;;;26.13;;
58260;SDS011;44058;52.898;6.502;2022-12-17T16:07:02;63.17;;;25.73;;
58260;SDS011;44058;52.898;6.502;2022-12-17T16:09:29;71.23;;;28.00;;
58260;SDS011;44058;52.898;6.502;2022-12-17T16:11:55;63.90;;;25.90;;
58260;SDS011;44058;52.898;6.502;2022-12-17T16:14:22;67.10;;;28.33;;
58260;SDS011;44058;52.898;6.502;2022-12-17T16:16:49;69.40;;;26.93;;
58260;SDS011;44058;52.898;6.502;2022-12-17T16:19:16;69.70;;;27.00;;
58260;SDS011;44058;52.898;6.502;2022-12-17T16:21:42;69.67;;;28.00;;
58260;SDS011;44058;52.898;6.502;2022-12-17T16:24:09;69.70;;;27.67;;
58260;SDS011;44058;52.898;6.502;2022-12-17T16:26:35;67.43;;;27.83;;
58260;SDS011;44058;52.898;6.502;2022-12-17T16:29:01;69.23;;;26.57;;
58260;SDS011;44058;52.898;6.502;2022-12-17T16:31:27;69.13;;;27.53;;
58260;SDS011;44058;52.898;6.502;2022-12-17T16:33:53;76.23;;;28.87;;
58260;SDS011;44058;52.898;6.502;2022-12-17T16:36:20;72.83;;;28.07;;
58260;SDS011;44058;52.898;6.502;2022-12-17T16:38:47;71.40;;;27.87;;
58260;SDS011;44058;52.898;6.502;2022-12-17T16:41:13;65.70;;;27.13;;
58260;SDS011;44058;52.898;6.502;2022-12-17T16:43:40;70.07;;;27.47;;
58260;SDS011;44058;52.898;6.502;2022-12-17T16:48:51;67.90;;;27.53;;
58260;SDS011;44058;52.898;6.502;2022-12-17T16:51:18;72.63;;;27.07;;
58260;SDS011;44058;52.898;6.502;2022-12-17T16:53:45;73.30;;;27.90;;
58260;SDS011;44058;52.898;6.502;2022-12-17T16:56:15;70.57;;;26.57;;